sensor_id;sensor_type;location;lat;lon;timestamp;P1;durP1;ratioP1;P2;durP2;ratioP2
11921;SDS011;6021;51.182;3.160;2022-10-04T00:04:32;16.53;;;14.10;;
11921;SDS011;6021;51.182;3.160;2022-10-04T00:09:53;17.23;;;14.30;;
11921;SDS011;6021;51.182;3.160;2022-10-04T00:15:01;17.13;;;14.80;;
11921;SDS011;6021;51.182;3.160;2022-10-04T00:17:31;17.47;;;15.67;;
11921;SDS011;6021;51.182;3.160;2022-10-04T00:20:03;15.57;;;13.77;;
11921;SDS011;6021;51.182;3.160;2022-10-04T00:22:34;17.77;;;15.17;;
11921;SDS011;6021;51.182;3.160;2022-10-04T00:27:39;18.10;;;15.17;;
11921;SDS011;6021;51.182;3.160;2022-10-04T00:30:43;18.50;;;15.83;;
11921;SDS011;6021;51.182;3.160;2022-10-04T00:32:59;19.27;;;15.07;;
11921;SDS011;6021;51.182;3.160;2022-10-04T00:40:51;19.87;;;17.73;;
11921;SDS011;6021;51.182;3.160;2022-10-04T00:43:28;23.17;;;18.20;;
11921;SDS011;6021;51.182;3.160;2022-10-04T00:45:59;20.23;;;17.50;;
11921;SDS011;6021;51.182;3.160;2022-10-04T00:51:11;24.17;;;18.73;;
11921;SDS011;6021;51.182;3.160;2022-10-04T00:53:47;25.07;;;19.70;;
11921;SDS011;6021;51.182;3.160;2022-10-04T00:56:21;25.13;;;20.23;;
11921;SDS011;6021;51.182;3.160;2022-10-04T00:59:02;27.80;;;20.33;;
11921;SDS011;6021;51.182;3.160;2022-10-04T01:01:25;24.37;;;19.70;;
11921;SDS011;6021;51.182;3.160;2022-10-04T01:03:55;26.50;;;19.87;;
11921;SDS011;6021;51.182;3.160;2022-10-04T01:06:25;24.53;;;20.70;;
11921;SDS011;6021;51.182;3.160;2022-10-04T01:08:55;24.60;;;21.17;;
11921;SDS011;6021;51.182;3.160;2022-10-04T01:11:26;23.20;;;20.70;;
11921;SDS011;6021;51.182;3.160;2022-10-04T01:13:58;25.00;;;20.37;;
11921;SDS011;6021;51.182;3.160;2022-10-04T01:16:45;26.73;;;20.47;;
11921;SDS011;6021;51.182;3.160;2022-10-04T01:24:41;23.33;;;19.07;;
11921;SDS011;6021;51.182;3.160;2022-10-04T01:27:29;21.13;;;18.63;;
11921;SDS011;6021;51.182;3.160;2022-10-04T01:29:59;23.97;;;19.07;;
11921;SDS011;6021;51.182;3.160;2022-10-04T01:32:29;23.20;;;20.07;;
11921;SDS011;6021;51.182;3.160;2022-10-04T01:34:58;29.93;;;22.20;;
11921;SDS011;6021;51.182;3.160;2022-10-04T01:37:27;25.57;;;21.27;;
11921;SDS011;6021;51.182;3.160;2022-10-04T01:39:55;27.30;;;22.33;;
11921;SDS011;6021;51.182;3.160;2022-10-04T01:42:28;26.27;;;21.67;;
11921;SDS011;6021;51.182;3.160;2022-10-04T01:44:57;28.47;;;21.20;;
11921;SDS011;6021;51.182;3.160;2022-10-04T01:47:39;23.63;;;21.00;;
11921;SDS011;6021;51.182;3.160;2022-10-04T01:50:18;26.03;;;20.63;;
11921;SDS011;6021;51.182;3.160;2022-10-04T01:52:49;24.83;;;20.60;;
11921;SDS011;6021;51.182;3.160;2022-10-04T01:55:19;24.13;;;20.20;;
11921;SDS011;6021;51.182;3.160;2022-10-04T01:58:01;23.77;;;19.77;;
11921;SDS011;6021;51.182;3.160;2022-10-04T02:00:30;26.60;;;19.87;;
11921;SDS011;6021;51.182;3.160;2022-10-04T02:03:03;23.97;;;20.30;;
11921;SDS011;6021;51.182;3.160;2022-10-04T02:08:29;29.10;;;21.70;;
11921;SDS011;6021;51.182;3.160;2022-10-04T02:11:00;26.90;;;22.03;;
11921;SDS011;6021;51.182;3.160;2022-10-04T02:13:34;25.03;;;20.83;;
11921;SDS011;6021;51.182;3.160;2022-10-04T02:16:09;30.83;;;21.67;;
11921;SDS011;6021;51.182;3.160;2022-10-04T02:18:38;26.83;;;21.33;;
11921;SDS011;6021;51.182;3.160;2022-10-04T02:21:10;29.63;;;22.67;;
11921;SDS011;6021;51.182;3.160;2022-10-04T02:23:40;33.20;;;24.00;;
11921;SDS011;6021;51.182;3.160;2022-10-04T02:26:10;29.13;;;23.53;;
11921;SDS011;6021;51.182;3.160;2022-10-04T02:28:39;26.40;;;20.90;;
11921;SDS011;6021;51.182;3.160;2022-10-04T02:31:08;31.57;;;22.37;;
11921;SDS011;6021;51.182;3.160;2022-10-04T02:33:55;29.17;;;23.13;;
11921;SDS011;6021;51.182;3.160;2022-10-04T02:36:25;36.50;;;21.37;;
11921;SDS011;6021;51.182;3.160;2022-10-04T02:46:51;24.30;;;19.20;;
11921;SDS011;6021;51.182;3.160;2022-10-04T02:49:43;25.53;;;19.50;;
11921;SDS011;6021;51.182;3.160;2022-10-04T02:52:29;25.30;;;19.80;;
11921;SDS011;6021;51.182;3.160;2022-10-04T02:55:16;27.67;;;20.17;;
11921;SDS011;6021;51.182;3.160;2022-10-04T02:57:53;22.07;;;15.40;;
11921;SDS011;6021;51.182;3.160;2022-10-04T03:00:27;26.87;;;18.97;;
11921;SDS011;6021;51.182;3.160;2022-10-04T03:06:02;26.23;;;19.37;;
11921;SDS011;6021;51.182;3.160;2022-10-04T03:08:35;24.63;;;18.67;;
11921;SDS011;6021;51.182;3.160;2022-10-04T03:11:12;28.03;;;19.93;;
11921;SDS011;6021;51.182;3.160;2022-10-04T03:13:46;25.13;;;19.70;;
11921;SDS011;6021;51.182;3.160;2022-10-04T03:16:16;26.57;;;20.33;;
11921;SDS011;6021;51.182;3.160;2022-10-04T03:18:45;22.67;;;19.10;;
11921;SDS011;6021;51.182;3.160;2022-10-04T03:21:16;21.47;;;18.37;;
11921;SDS011;6021;51.182;3.160;2022-10-04T03:23:47;22.70;;;17.87;;
11921;SDS011;6021;51.182;3.160;2022-10-04T03:28:49;25.07;;;18.83;;
11921;SDS011;6021;51.182;3.160;2022-10-04T03:31:18;24.17;;;18.37;;
11921;SDS011;6021;51.182;3.160;2022-10-04T03:33:46;23.23;;;18.80;;
11921;SDS011;6021;51.182;3.160;2022-10-04T03:36:16;22.57;;;19.47;;
11921;SDS011;6021;51.182;3.160;2022-10-04T03:38:46;23.07;;;19.10;;
11921;SDS011;6021;51.182;3.160;2022-10-04T03:41:15;21.80;;;16.60;;
11921;SDS011;6021;51.182;3.160;2022-10-04T03:43:44;21.87;;;17.50;;
11921;SDS011;6021;51.182;3.160;2022-10-04T03:46:16;21.50;;;17.53;;
11921;SDS011;6021;51.182;3.160;2022-10-04T03:48:51;19.83;;;16.80;;
11921;SDS011;6021;51.182;3.160;2022-10-04T03:51:22;19.70;;;17.10;;
11921;SDS011;6021;51.182;3.160;2022-10-04T03:53:52;19.83;;;13.70;;
11921;SDS011;6021;51.182;3.160;2022-10-04T03:58:54;23.33;;;17.60;;
11921;SDS011;6021;51.182;3.160;2022-10-04T04:01:36;22.33;;;18.13;;
11921;SDS011;6021;51.182;3.160;2022-10-04T04:04:53;23.00;;;18.00;;
11921;SDS011;6021;51.182;3.160;2022-10-04T04:06:44;24.30;;;19.13;;
11921;SDS011;6021;51.182;3.160;2022-10-04T04:09:17;23.97;;;18.73;;
11921;SDS011;6021;51.182;3.160;2022-10-04T04:11:46;25.07;;;19.80;;
11921;SDS011;6021;51.182;3.160;2022-10-04T04:14:23;21.83;;;18.90;;
11921;SDS011;6021;51.182;3.160;2022-10-04T04:16:48;23.83;;;18.97;;
11921;SDS011;6021;51.182;3.160;2022-10-04T04:19:27;27.70;;;20.23;;
11921;SDS011;6021;51.182;3.160;2022-10-04T04:21:50;26.50;;;20.53;;
11921;SDS011;6021;51.182;3.160;2022-10-04T04:24:24;25.77;;;19.53;;
11921;SDS011;6021;51.182;3.160;2022-10-04T04:26:55;25.60;;;20.87;;
11921;SDS011;6021;51.182;3.160;2022-10-04T04:30:00;25.47;;;20.20;;
11921;SDS011;6021;51.182;3.160;2022-10-04T04:32:23;24.27;;;18.73;;
11921;SDS011;6021;51.182;3.160;2022-10-04T04:34:50;24.60;;;18.23;;
11921;SDS011;6021;51.182;3.160;2022-10-04T04:37:20;24.07;;;20.00;;
11921;SDS011;6021;51.182;3.160;2022-10-04T04:39:49;21.07;;;18.50;;
11921;SDS011;6021;51.182;3.160;2022-10-04T04:42:27;24.40;;;18.10;;
11921;SDS011;6021;51.182;3.160;2022-10-04T04:45:00;21.60;;;18.67;;
11921;SDS011;6021;51.182;3.160;2022-10-04T04:47:33;23.80;;;19.23;;
11921;SDS011;6021;51.182;3.160;2022-10-04T04:50:13;23.33;;;18.73;;
11921;SDS011;6021;51.182;3.160;2022-10-04T04:52:47;21.37;;;18.13;;
11921;SDS011;6021;51.182;3.160;2022-10-04T04:55:26;23.77;;;18.93;;
11921;SDS011;6021;51.182;3.160;2022-10-04T04:57:53;27.03;;;20.57;;
11921;SDS011;6021;51.182;3.160;2022-10-04T05:00:32;27.93;;;19.87;;
11921;SDS011;6021;51.182;3.160;2022-10-04T05:02:59;25.83;;;20.03;;
11921;SDS011;6021;51.182;3.160;2022-10-04T05:05:29;31.73;;;22.17;;
11921;SDS011;6021;51.182;3.160;2022-10-04T05:11:11;27.57;;;20.13;;
11921;SDS011;6021;51.182;3.160;2022-10-04T05:13:44;26.30;;;20.63;;
11921;SDS011;6021;51.182;3.160;2022-10-04T05:16:21;24.83;;;17.00;;
11921;SDS011;6021;51.182;3.160;2022-10-04T05:19:02;29.23;;;20.90;;
11921;SDS011;6021;51.182;3.160;2022-10-04T05:21:32;25.00;;;21.10;;
11921;SDS011;6021;51.182;3.160;2022-10-04T05:24:17;24.73;;;20.53;;
11921;SDS011;6021;51.182;3.160;2022-10-04T05:26:52;28.83;;;21.40;;
11921;SDS011;6021;51.182;3.160;2022-10-04T05:29:36;29.90;;;21.50;;
11921;SDS011;6021;51.182;3.160;2022-10-04T05:34:38;24.67;;;20.00;;
11921;SDS011;6021;51.182;3.160;2022-10-04T05:42:46;21.90;;;19.23;;
11921;SDS011;6021;51.182;3.160;2022-10-04T05:45:26;25.47;;;21.77;;
11921;SDS011;6021;51.182;3.160;2022-10-04T05:47:57;30.00;;;21.87;;
11921;SDS011;6021;51.182;3.160;2022-10-04T05:55:54;21.60;;;18.30;;
11921;SDS011;6021;51.182;3.160;2022-10-04T05:58:39;26.43;;;19.40;;
11921;SDS011;6021;51.182;3.160;2022-10-04T06:01:21;22.40;;;18.93;;
11921;SDS011;6021;51.182;3.160;2022-10-04T06:07:00;27.10;;;20.33;;
11921;SDS011;6021;51.182;3.160;2022-10-04T06:09:43;30.73;;;20.90;;
11921;SDS011;6021;51.182;3.160;2022-10-04T06:12:11;25.40;;;21.23;;
11921;SDS011;6021;51.182;3.160;2022-10-04T06:17:48;27.20;;;21.43;;
11921;SDS011;6021;51.182;3.160;2022-10-04T06:20:40;27.83;;;20.70;;
11921;SDS011;6021;51.182;3.160;2022-10-04T06:23:25;26.63;;;20.60;;
11921;SDS011;6021;51.182;3.160;2022-10-04T06:25:57;25.37;;;20.63;;
11921;SDS011;6021;51.182;3.160;2022-10-04T06:28:30;22.77;;;19.47;;
11921;SDS011;6021;51.182;3.160;2022-10-04T06:31:18;23.40;;;19.93;;
11921;SDS011;6021;51.182;3.160;2022-10-04T06:36:49;25.17;;;20.03;;
11921;SDS011;6021;51.182;3.160;2022-10-04T06:39:41;23.70;;;20.87;;
11921;SDS011;6021;51.182;3.160;2022-10-04T06:53:47;24.90;;;20.60;;
11921;SDS011;6021;51.182;3.160;2022-10-04T07:05:00;23.97;;;19.27;;
11921;SDS011;6021;51.182;3.160;2022-10-04T07:07:41;25.20;;;19.67;;
11921;SDS011;6021;51.182;3.160;2022-10-04T07:18:21;25.03;;;19.87;;
11921;SDS011;6021;51.182;3.160;2022-10-04T07:20:57;26.17;;;20.00;;
11921;SDS011;6021;51.182;3.160;2022-10-04T07:23:34;21.93;;;19.40;;
11921;SDS011;6021;51.182;3.160;2022-10-04T07:26:12;23.00;;;19.07;;
11921;SDS011;6021;51.182;3.160;2022-10-04T07:28:43;22.20;;;19.47;;
11921;SDS011;6021;51.182;3.160;2022-10-04T07:31:31;22.40;;;19.30;;
11921;SDS011;6021;51.182;3.160;2022-10-04T07:34:08;25.43;;;19.23;;
11921;SDS011;6021;51.182;3.160;2022-10-04T07:36:53;23.47;;;19.80;;
11921;SDS011;6021;51.182;3.160;2022-10-04T07:39:39;26.27;;;21.17;;
11921;SDS011;6021;51.182;3.160;2022-10-04T07:47:37;24.87;;;20.77;;
11921;SDS011;6021;51.182;3.160;2022-10-04T07:52:57;22.93;;;19.17;;
11921;SDS011;6021;51.182;3.160;2022-10-04T07:55:28;22.37;;;19.70;;
11921;SDS011;6021;51.182;3.160;2022-10-04T07:58:25;22.43;;;19.73;;
11921;SDS011;6021;51.182;3.160;2022-10-04T08:01:00;22.93;;;20.43;;
11921;SDS011;6021;51.182;3.160;2022-10-04T08:03:38;27.73;;;22.17;;
11921;SDS011;6021;51.182;3.160;2022-10-04T08:14:37;23.67;;;19.60;;
11921;SDS011;6021;51.182;3.160;2022-10-04T08:17:06;24.23;;;19.63;;
11921;SDS011;6021;51.182;3.160;2022-10-04T08:19:42;21.37;;;19.07;;
11921;SDS011;6021;51.182;3.160;2022-10-04T08:25:10;20.47;;;18.23;;
11921;SDS011;6021;51.182;3.160;2022-10-04T08:39:08;20.87;;;17.57;;
11921;SDS011;6021;51.182;3.160;2022-10-04T08:47:34;19.83;;;17.03;;
11921;SDS011;6021;51.182;3.160;2022-10-04T08:50:22;21.53;;;17.33;;
11921;SDS011;6021;51.182;3.160;2022-10-04T09:16:29;21.30;;;17.37;;
11921;SDS011;6021;51.182;3.160;2022-10-04T09:19:22;23.37;;;17.83;;
11921;SDS011;6021;51.182;3.160;2022-10-04T09:21:59;22.13;;;18.27;;
11921;SDS011;6021;51.182;3.160;2022-10-04T09:30:11;22.00;;;18.40;;
11921;SDS011;6021;51.182;3.160;2022-10-04T09:50:01;23.03;;;15.13;;
11921;SDS011;6021;51.182;3.160;2022-10-04T09:52:36;19.93;;;13.47;;
11921;SDS011;6021;51.182;3.160;2022-10-04T09:58:21;19.87;;;14.47;;
11921;SDS011;6021;51.182;3.160;2022-10-04T10:06:33;18.00;;;12.50;;
11921;SDS011;6021;51.182;3.160;2022-10-04T10:09:10;16.57;;;13.20;;
11921;SDS011;6021;51.182;3.160;2022-10-04T10:17:18;14.53;;;11.87;;
11921;SDS011;6021;51.182;3.160;2022-10-04T10:25:36;14.90;;;12.03;;
11921;SDS011;6021;51.182;3.160;2022-10-04T10:30:39;14.33;;;11.63;;
11921;SDS011;6021;51.182;3.160;2022-10-04T10:52:53;15.23;;;11.63;;
11921;SDS011;6021;51.182;3.160;2022-10-04T11:04:03;12.97;;;10.43;;
11921;SDS011;6021;51.182;3.160;2022-10-04T11:06:21;13.80;;;11.20;;
11921;SDS011;6021;51.182;3.160;2022-10-04T11:18:00;14.57;;;11.60;;
11921;SDS011;6021;51.182;3.160;2022-10-04T11:29:21;14.43;;;11.20;;
11921;SDS011;6021;51.182;3.160;2022-10-04T11:32:23;12.10;;;10.43;;
11921;SDS011;6021;51.182;3.160;2022-10-04T11:41:11;13.00;;;10.53;;
11921;SDS011;6021;51.182;3.160;2022-10-04T11:47:03;17.43;;;11.30;;
11921;SDS011;6021;51.182;3.160;2022-10-04T12:00:45;11.60;;;10.40;;
11921;SDS011;6021;51.182;3.160;2022-10-04T12:09:25;11.13;;;10.03;;
11921;SDS011;6021;51.182;3.160;2022-10-04T12:15:26;11.27;;;9.70;;
11921;SDS011;6021;51.182;3.160;2022-10-04T12:21:02;10.93;;;9.40;;
11921;SDS011;6021;51.182;3.160;2022-10-04T12:23:47;12.07;;;10.40;;
11921;SDS011;6021;51.182;3.160;2022-10-04T12:29:14;12.60;;;10.23;;
11921;SDS011;6021;51.182;3.160;2022-10-04T12:31:50;12.03;;;10.63;;
11921;SDS011;6021;51.182;3.160;2022-10-04T12:34:23;11.70;;;10.50;;
11921;SDS011;6021;51.182;3.160;2022-10-04T12:36:57;11.87;;;10.67;;
11921;SDS011;6021;51.182;3.160;2022-10-04T12:48:00;9.83;;;8.27;;
11921;SDS011;6021;51.182;3.160;2022-10-04T12:53:36;10.73;;;9.67;;
11921;SDS011;6021;51.182;3.160;2022-10-04T12:59:05;9.30;;;8.40;;
11921;SDS011;6021;51.182;3.160;2022-10-04T13:01:45;9.27;;;8.37;;
11921;SDS011;6021;51.182;3.160;2022-10-04T13:04:17;10.17;;;8.80;;
11921;SDS011;6021;51.182;3.160;2022-10-04T13:12:34;9.47;;;8.57;;
11921;SDS011;6021;51.182;3.160;2022-10-04T13:15:08;10.00;;;8.63;;
11921;SDS011;6021;51.182;3.160;2022-10-04T13:23:33;8.53;;;7.27;;
11921;SDS011;6021;51.182;3.160;2022-10-04T13:26:07;7.83;;;6.83;;
11921;SDS011;6021;51.182;3.160;2022-10-04T13:28:48;8.30;;;7.50;;
11921;SDS011;6021;51.182;3.160;2022-10-04T13:34:37;8.37;;;7.47;;
11921;SDS011;6021;51.182;3.160;2022-10-04T13:42:44;8.37;;;7.20;;
11921;SDS011;6021;51.182;3.160;2022-10-04T13:46:19;8.83;;;7.93;;
11921;SDS011;6021;51.182;3.160;2022-10-04T13:53:36;9.90;;;7.30;;
11921;SDS011;6021;51.182;3.160;2022-10-04T13:59:32;8.60;;;6.60;;
11921;SDS011;6021;51.182;3.160;2022-10-04T14:08:14;7.97;;;7.10;;
11921;SDS011;6021;51.182;3.160;2022-10-04T14:16:24;8.53;;;7.30;;
11921;SDS011;6021;51.182;3.160;2022-10-04T14:30:20;5.87;;;4.70;;
11921;SDS011;6021;51.182;3.160;2022-10-04T14:33:15;5.10;;;3.20;;
11921;SDS011;6021;51.182;3.160;2022-10-04T14:35:49;4.17;;;2.50;;
11921;SDS011;6021;51.182;3.160;2022-10-04T14:50:00;4.93;;;3.10;;
11921;SDS011;6021;51.182;3.160;2022-10-04T14:52:31;4.07;;;2.80;;
11921;SDS011;6021;51.182;3.160;2022-10-04T15:03:36;3.70;;;2.90;;
11921;SDS011;6021;51.182;3.160;2022-10-04T15:06:10;3.30;;;2.90;;
11921;SDS011;6021;51.182;3.160;2022-10-04T15:08:46;5.33;;;2.83;;
11921;SDS011;6021;51.182;3.160;2022-10-04T15:11:13;2.70;;;2.43;;
11921;SDS011;6021;51.182;3.160;2022-10-04T15:13:53;2.23;;;2.00;;
11921;SDS011;6021;51.182;3.160;2022-10-04T15:21:51;2.40;;;2.00;;
11921;SDS011;6021;51.182;3.160;2022-10-04T15:27:23;2.33;;;2.10;;
11921;SDS011;6021;51.182;3.160;2022-10-04T15:30:07;2.60;;;2.23;;
11921;SDS011;6021;51.182;3.160;2022-10-04T15:32:36;5.20;;;2.20;;
11921;SDS011;6021;51.182;3.160;2022-10-04T15:35:16;3.30;;;2.40;;
11921;SDS011;6021;51.182;3.160;2022-10-04T15:37:52;2.73;;;2.40;;
11921;SDS011;6021;51.182;3.160;2022-10-04T15:46:04;3.43;;;2.50;;
11921;SDS011;6021;51.182;3.160;2022-10-04T15:48:46;3.23;;;2.60;;
11921;SDS011;6021;51.182;3.160;2022-10-04T15:51:24;3.77;;;2.70;;
11921;SDS011;6021;51.182;3.160;2022-10-04T15:56:54;2.60;;;2.40;;
11921;SDS011;6021;51.182;3.160;2022-10-04T15:59:35;6.70;;;2.80;;
11921;SDS011;6021;51.182;3.160;2022-10-04T16:07:33;6.00;;;2.70;;
11921;SDS011;6021;51.182;3.160;2022-10-04T16:16:15;3.67;;;2.20;;
11921;SDS011;6021;51.182;3.160;2022-10-04T16:18:51;3.73;;;2.40;;
11921;SDS011;6021;51.182;3.160;2022-10-04T16:21:29;2.30;;;2.10;;
11921;SDS011;6021;51.182;3.160;2022-10-04T16:24:27;3.73;;;2.30;;
11921;SDS011;6021;51.182;3.160;2022-10-04T16:29:26;4.67;;;1.97;;
11921;SDS011;6021;51.182;3.160;2022-10-04T16:31:58;3.30;;;1.93;;
11921;SDS011;6021;51.182;3.160;2022-10-04T16:34:38;3.73;;;2.10;;
11921;SDS011;6021;51.182;3.160;2022-10-04T16:39:55;2.77;;;1.70;;
11921;SDS011;6021;51.182;3.160;2022-10-04T16:42:46;3.63;;;1.80;;
11921;SDS011;6021;51.182;3.160;2022-10-04T16:47:59;3.20;;;1.60;;
11921;SDS011;6021;51.182;3.160;2022-10-04T16:56:15;1.80;;;1.70;;
11921;SDS011;6021;51.182;3.160;2022-10-04T17:04:21;2.60;;;1.70;;
11921;SDS011;6021;51.182;3.160;2022-10-04T17:10:02;2.00;;;1.70;;
11921;SDS011;6021;51.182;3.160;2022-10-04T17:12:53;3.80;;;1.70;;
11921;SDS011;6021;51.182;3.160;2022-10-04T17:24:06;6.90;;;2.03;;
11921;SDS011;6021;51.182;3.160;2022-10-04T17:29:06;5.70;;;2.30;;
11921;SDS011;6021;51.182;3.160;2022-10-04T17:32:09;4.57;;;2.20;;
11921;SDS011;6021;51.182;3.160;2022-10-04T17:34:30;4.53;;;2.17;;
11921;SDS011;6021;51.182;3.160;2022-10-04T17:37:09;3.67;;;2.20;;
11921;SDS011;6021;51.182;3.160;2022-10-04T17:39:51;6.83;;;2.60;;
11921;SDS011;6021;51.182;3.160;2022-10-04T17:43:02;5.20;;;2.10;;
11921;SDS011;6021;51.182;3.160;2022-10-04T17:45:56;4.90;;;2.37;;
11921;SDS011;6021;51.182;3.160;2022-10-04T17:54:27;4.40;;;2.10;;
11921;SDS011;6021;51.182;3.160;2022-10-04T18:00:22;3.77;;;2.00;;
11921;SDS011;6021;51.182;3.160;2022-10-04T18:08:16;5.10;;;2.40;;
11921;SDS011;6021;51.182;3.160;2022-10-04T18:10:56;2.77;;;1.97;;
11921;SDS011;6021;51.182;3.160;2022-10-04T18:13:32;6.40;;;1.97;;
11921;SDS011;6021;51.182;3.160;2022-10-04T18:18:45;7.47;;;2.60;;
11921;SDS011;6021;51.182;3.160;2022-10-04T18:23:55;4.40;;;2.53;;
11921;SDS011;6021;51.182;3.160;2022-10-04T18:26:26;3.07;;;2.40;;
11921;SDS011;6021;51.182;3.160;2022-10-04T18:28:58;3.23;;;2.30;;
11921;SDS011;6021;51.182;3.160;2022-10-04T18:31:31;3.77;;;2.17;;
11921;SDS011;6021;51.182;3.160;2022-10-04T18:36:49;3.23;;;2.40;;
11921;SDS011;6021;51.182;3.160;2022-10-04T18:40:01;4.07;;;2.67;;
11921;SDS011;6021;51.182;3.160;2022-10-04T18:42:16;5.37;;;2.90;;
11921;SDS011;6021;51.182;3.160;2022-10-04T18:44:59;5.43;;;2.70;;
11921;SDS011;6021;51.182;3.160;2022-10-04T18:47:31;4.40;;;2.53;;
11921;SDS011;6021;51.182;3.160;2022-10-04T18:50:04;5.03;;;2.90;;
11921;SDS011;6021;51.182;3.160;2022-10-04T18:58:38;4.50;;;3.10;;
11921;SDS011;6021;51.182;3.160;2022-10-04T19:07:33;4.10;;;3.20;;
11921;SDS011;6021;51.182;3.160;2022-10-04T19:10:14;4.73;;;3.50;;
11921;SDS011;6021;51.182;3.160;2022-10-04T19:16:00;3.50;;;3.20;;
11921;SDS011;6021;51.182;3.160;2022-10-04T19:18:35;5.10;;;3.60;;
11921;SDS011;6021;51.182;3.160;2022-10-04T19:24:16;4.47;;;3.17;;
11921;SDS011;6021;51.182;3.160;2022-10-04T19:26:43;5.67;;;3.20;;
11921;SDS011;6021;51.182;3.160;2022-10-04T19:29:22;3.20;;;2.90;;
11921;SDS011;6021;51.182;3.160;2022-10-04T19:32:07;3.97;;;3.10;;
11921;SDS011;6021;51.182;3.160;2022-10-04T19:34:42;7.13;;;3.50;;
11921;SDS011;6021;51.182;3.160;2022-10-04T19:37:26;4.97;;;3.17;;
11921;SDS011;6021;51.182;3.160;2022-10-04T19:45:36;4.67;;;2.80;;
11921;SDS011;6021;51.182;3.160;2022-10-04T19:48:21;6.87;;;2.97;;
11921;SDS011;6021;51.182;3.160;2022-10-04T19:50:49;4.70;;;2.73;;
11921;SDS011;6021;51.182;3.160;2022-10-04T19:53:28;3.60;;;2.50;;
11921;SDS011;6021;51.182;3.160;2022-10-04T19:56:00;4.10;;;2.63;;
11921;SDS011;6021;51.182;3.160;2022-10-04T19:58:35;4.63;;;2.93;;
11921;SDS011;6021;51.182;3.160;2022-10-04T20:01:13;4.60;;;2.83;;
11921;SDS011;6021;51.182;3.160;2022-10-04T20:03:43;4.30;;;3.10;;
11921;SDS011;6021;51.182;3.160;2022-10-04T20:06:20;3.70;;;2.60;;
11921;SDS011;6021;51.182;3.160;2022-10-04T20:08:52;5.57;;;2.63;;
11921;SDS011;6021;51.182;3.160;2022-10-04T20:11:27;11.50;;;3.37;;
11921;SDS011;6021;51.182;3.160;2022-10-04T20:19:42;5.37;;;2.57;;
11921;SDS011;6021;51.182;3.160;2022-10-04T20:29:58;3.83;;;2.40;;
11921;SDS011;6021;51.182;3.160;2022-10-04T20:35:04;4.30;;;2.70;;
11921;SDS011;6021;51.182;3.160;2022-10-04T20:45:48;4.87;;;2.57;;
11921;SDS011;6021;51.182;3.160;2022-10-04T20:50:50;5.20;;;2.50;;
11921;SDS011;6021;51.182;3.160;2022-10-04T20:53:24;4.80;;;2.40;;
11921;SDS011;6021;51.182;3.160;2022-10-04T20:56:10;2.73;;;2.30;;
11921;SDS011;6021;51.182;3.160;2022-10-04T21:01:29;4.10;;;2.47;;
11921;SDS011;6021;51.182;3.160;2022-10-04T21:04:19;5.67;;;2.27;;
11921;SDS011;6021;51.182;3.160;2022-10-04T21:07:03;3.23;;;2.50;;
11921;SDS011;6021;51.182;3.160;2022-10-04T21:09:34;4.37;;;2.60;;
11921;SDS011;6021;51.182;3.160;2022-10-04T21:12:04;7.43;;;3.23;;
11921;SDS011;6021;51.182;3.160;2022-10-04T21:14:34;4.73;;;3.07;;
11921;SDS011;6021;51.182;3.160;2022-10-04T21:17:04;4.87;;;2.63;;
11921;SDS011;6021;51.182;3.160;2022-10-04T21:19:52;6.00;;;2.80;;
11921;SDS011;6021;51.182;3.160;2022-10-04T21:24:59;3.63;;;2.60;;
11921;SDS011;6021;51.182;3.160;2022-10-04T21:27:36;7.67;;;2.43;;
11921;SDS011;6021;51.182;3.160;2022-10-04T21:30:11;5.20;;;2.90;;
11921;SDS011;6021;51.182;3.160;2022-10-04T21:32:40;5.10;;;2.60;;
11921;SDS011;6021;51.182;3.160;2022-10-04T21:35:08;4.40;;;2.70;;
11921;SDS011;6021;51.182;3.160;2022-10-04T21:37:38;3.03;;;2.33;;
11921;SDS011;6021;51.182;3.160;2022-10-04T21:40:06;7.13;;;2.83;;
11921;SDS011;6021;51.182;3.160;2022-10-04T21:42:35;6.03;;;2.80;;
11921;SDS011;6021;51.182;3.160;2022-10-04T21:45:03;2.43;;;2.20;;
11921;SDS011;6021;51.182;3.160;2022-10-04T21:47:32;3.77;;;2.10;;
11921;SDS011;6021;51.182;3.160;2022-10-04T21:50:01;3.37;;;2.50;;
11921;SDS011;6021;51.182;3.160;2022-10-04T21:52:29;4.60;;;2.70;;
11921;SDS011;6021;51.182;3.160;2022-10-04T21:54:57;4.47;;;2.37;;
11921;SDS011;6021;51.182;3.160;2022-10-04T21:57:26;3.03;;;2.40;;
11921;SDS011;6021;51.182;3.160;2022-10-04T21:59:54;4.70;;;2.30;;
11921;SDS011;6021;51.182;3.160;2022-10-04T22:02:22;7.63;;;2.90;;
11921;SDS011;6021;51.182;3.160;2022-10-04T22:04:50;3.77;;;2.17;;
11921;SDS011;6021;51.182;3.160;2022-10-04T22:07:19;4.03;;;2.20;;
11921;SDS011;6021;51.182;3.160;2022-10-04T22:09:47;5.37;;;2.20;;
11921;SDS011;6021;51.182;3.160;2022-10-04T22:12:15;3.73;;;2.27;;
11921;SDS011;6021;51.182;3.160;2022-10-04T22:14:43;4.23;;;2.00;;
11921;SDS011;6021;51.182;3.160;2022-10-04T22:17:12;3.37;;;2.03;;
11921;SDS011;6021;51.182;3.160;2022-10-04T22:19:40;3.43;;;1.90;;
11921;SDS011;6021;51.182;3.160;2022-10-04T22:22:13;4.77;;;2.03;;
11921;SDS011;6021;51.182;3.160;2022-10-04T22:24:42;2.70;;;2.27;;
11921;SDS011;6021;51.182;3.160;2022-10-04T22:27:15;2.90;;;2.07;;
11921;SDS011;6021;51.182;3.160;2022-10-04T22:29:45;5.57;;;2.10;;
11921;SDS011;6021;51.182;3.160;2022-10-04T22:32:20;3.87;;;2.20;;
11921;SDS011;6021;51.182;3.160;2022-10-04T22:34:45;2.10;;;1.90;;
11921;SDS011;6021;51.182;3.160;2022-10-04T22:37:13;4.23;;;2.20;;
11921;SDS011;6021;51.182;3.160;2022-10-04T22:39:44;2.67;;;2.10;;
11921;SDS011;6021;51.182;3.160;2022-10-04T22:42:13;2.30;;;1.80;;
11921;SDS011;6021;51.182;3.160;2022-10-04T22:44:41;3.83;;;2.10;;
11921;SDS011;6021;51.182;3.160;2022-10-04T22:47:11;4.87;;;2.43;;
11921;SDS011;6021;51.182;3.160;2022-10-04T22:49:42;3.47;;;1.90;;
11921;SDS011;6021;51.182;3.160;2022-10-04T22:52:21;2.87;;;2.10;;
11921;SDS011;6021;51.182;3.160;2022-10-04T22:54:51;5.47;;;2.40;;
11921;SDS011;6021;51.182;3.160;2022-10-04T22:57:20;4.63;;;1.97;;
11921;SDS011;6021;51.182;3.160;2022-10-04T22:59:49;3.23;;;2.23;;
11921;SDS011;6021;51.182;3.160;2022-10-04T23:02:19;2.17;;;1.90;;
11921;SDS011;6021;51.182;3.160;2022-10-04T23:04:54;4.17;;;2.20;;
11921;SDS011;6021;51.182;3.160;2022-10-04T23:07:24;6.17;;;2.10;;
11921;SDS011;6021;51.182;3.160;2022-10-04T23:09:52;3.13;;;2.10;;
11921;SDS011;6021;51.182;3.160;2022-10-04T23:12:20;2.73;;;2.53;;
11921;SDS011;6021;51.182;3.160;2022-10-04T23:14:49;4.33;;;2.27;;
11921;SDS011;6021;51.182;3.160;2022-10-04T23:17:24;3.83;;;2.43;;
11921;SDS011;6021;51.182;3.160;2022-10-04T23:19:58;4.87;;;2.30;;
11921;SDS011;6021;51.182;3.160;2022-10-04T23:22:28;3.97;;;2.43;;
11921;SDS011;6021;51.182;3.160;2022-10-04T23:24:57;5.50;;;2.30;;
11921;SDS011;6021;51.182;3.160;2022-10-04T23:27:26;3.83;;;2.40;;
11921;SDS011;6021;51.182;3.160;2022-10-04T23:29:59;3.73;;;2.37;;
11921;SDS011;6021;51.182;3.160;2022-10-04T23:32:29;3.93;;;2.13;;
11921;SDS011;6021;51.182;3.160;2022-10-04T23:34:58;3.40;;;2.40;;
11921;SDS011;6021;51.182;3.160;2022-10-04T23:37:30;3.07;;;2.40;;
11921;SDS011;6021;51.182;3.160;2022-10-04T23:39:59;2.67;;;2.40;;
11921;SDS011;6021;51.182;3.160;2022-10-04T23:42:28;5.10;;;2.77;;
11921;SDS011;6021;51.182;3.160;2022-10-04T23:44:59;3.27;;;2.50;;
11921;SDS011;6021;51.182;3.160;2022-10-04T23:47:32;3.33;;;2.37;;
11921;SDS011;6021;51.182;3.160;2022-10-04T23:50:06;4.27;;;2.60;;
11921;SDS011;6021;51.182;3.160;2022-10-04T23:52:36;3.03;;;2.30;;
11921;SDS011;6021;51.182;3.160;2022-10-04T23:55:16;2.93;;;2.40;;
11921;SDS011;6021;51.182;3.160;2022-10-04T23:57:46;4.30;;;2.47;;
